Terminal Aerodrome Forecast
Issued by NWS Austin/San Antonio, TX

Home | Current Version | Previous Version | Text Only | Print | Product List | Glossary On
Versions: 1 2 3 4 5 6 7 8 9 10 11 12 13 14 15 16 17 18 19
000
FTUS44 KEWX 051734
TAFAUS
TAF
KAUS 051734Z 0518/0624 18014G24KT P6SM BKN045
     FM052300 17013KT P6SM FEW050
     FM060700 16010KT P6SM OVC015
     FM061000 17010KT P6SM OVC008
     FM061500 18012KT P6SM BKN015
     FM061700 17015KT P6SM BKN040=

USA.gov is the U.S. government's official web portal to all federal, state and local government web resources and services.